KMSP/MSP METAR and TAF weather

Enter ICAO airport designator
Station Type Date Time Source
KMSP METAR 2021/05/15 01:53 UTC NOAA

KMSP 150153Z 14009KT 10SM FEW045 BKN055 OVC070 14/06 A3012 RMK AO2 SLP201 VIRGA T01390056


Station Type Date Time Source
KMSP Decoded METAR 2021/05/15 01:53 UTC NOAA

MINNEAPOLIS-ST PAUL INTERNATIONAL , MN, United States (KMSP) 44-52N 93-13W 265M
May 14, 2021 - 09:53 PM EDT / 2021.05.15 0153 UTC
Wind: from the SE (140 degrees) at 10 MPH (9 KT):0
Visibility: 10 mile(s):0
Sky conditions: overcast
Temperature: 57.0 F (13.9 C)
Dew Point: 42.1 F (5.6 C)
Relative Humidity: 57%
Pressure (altimeter): 30.12 in. Hg (1019 hPa)
ob: KMSP 150153Z 14009KT 10SM FEW045 BKN055 OVC070 14/06 A3012 RMK AO2 SLP201 VIRGA T01390056
cycle: 2

Station Type Date Time Source
KMSP TAF 2021/05/14 21:09 UTC NOAA

TAF
AMD KMSP 142107Z 1421/1524 12009KT P6SM OVC070
FM150400 13008KT P6SM BKN030
FM151400 16005KT P6SM BKN018
FM151900 18005KT P6SM SCT040

Example: see airport list